createdAt,value
2022-11-28T00:03:19.179Z,39.90
2022-11-28T00:08:21.793Z,41.60
2022-11-28T00:13:24.155Z,37.00
2022-11-28T00:18:26.526Z,33.13
2022-11-28T00:23:30.293Z,35.73
2022-11-28T00:28:32.715Z,38.90
2022-11-28T00:33:34.997Z,37.33
2022-11-28T00:38:37.651Z,41.03
2022-11-28T00:43:40.806Z,39.23
2022-11-28T00:48:43.381Z,39.13
2022-11-28T00:53:48.015Z,42.17
2022-11-28T00:58:50.750Z,41.43
2022-11-28T01:03:54.646Z,40.00
2022-11-28T01:08:59.451Z,41.47
2022-11-28T01:14:02.748Z,43.20
2022-11-28T01:19:06.357Z,43.07
2022-11-28T01:24:09.257Z,44.87
2022-11-28T01:29:12.058Z,44.50
2022-11-28T01:34:14.584Z,44.63
2022-11-28T01:39:16.935Z,43.93
2022-11-28T01:44:19.222Z,42.57
2022-11-28T01:49:30.629Z,43.83
2022-11-28T01:54:35.783Z,43.67
2022-11-28T01:59:47.550Z,42.47
2022-11-28T02:04:50.998Z,40.90
2022-11-28T02:09:53.359Z,40.43
2022-11-28T02:15:10.920Z,39.50
2022-11-28T02:20:34.287Z,38.33
2022-11-28T02:25:47.699Z,39.77
2022-11-28T02:31:38.242Z,39.37
2022-11-28T02:36:56.161Z,38.10
2022-11-28T02:42:06.688Z,39.50
2022-11-28T02:47:15.200Z,38.57
2022-11-28T02:52:39.004Z,38.03
2022-11-28T02:57:47.099Z,37.07
2022-11-28T03:03:05.776Z,40.17
2022-11-28T03:08:28.176Z,39.57
2022-11-28T03:13:52.705Z,36.87
2022-11-28T03:19:05.590Z,40.33
2022-11-28T03:24:25.551Z,43.10
2022-11-28T03:29:52.927Z,39.87
2022-11-28T03:35:02.793Z,39.07
2022-11-28T03:40:13.961Z,40.73
2022-11-28T03:45:23.670Z,38.97
2022-11-28T03:50:33.690Z,41.40
2022-11-28T03:55:43.674Z,41.17
2022-11-28T04:00:57.140Z,42.43
2022-11-28T04:06:06.523Z,41.90
2022-11-28T04:11:23.077Z,41.27
2022-11-28T04:16:38.133Z,44.23
2022-11-28T04:22:02.203Z,42.80
2022-11-28T04:27:14.621Z,41.53
2022-11-28T04:32:19.555Z,39.07
2022-11-28T04:37:25.129Z,41.10
2022-11-28T04:42:35.215Z,40.07
2022-11-28T04:47:37.846Z,42.00
2022-11-28T04:53:09.463Z,39.10
2022-11-28T04:58:21.007Z,44.83
2022-11-28T05:03:27.990Z,41.57
2022-11-28T05:08:30.483Z,40.80
2022-11-28T05:13:32.758Z,38.80
2022-11-28T05:18:35.108Z,39.43
2022-11-28T05:23:38.629Z,38.43
2022-11-28T05:28:44.033Z,37.87
2022-11-28T05:33:46.546Z,39.13
2022-11-28T05:38:48.874Z,34.40
2022-11-28T05:43:52.202Z,33.40
2022-11-28T05:48:54.651Z,34.27
2022-11-28T05:53:57.003Z,37.27
2022-11-28T05:58:59.510Z,37.47
2022-11-28T06:04:02.125Z,33.47
2022-11-28T06:09:06.104Z,36.37
2022-11-28T06:14:08.563Z,35.97
2022-11-28T06:19:11.999Z,37.27
2022-11-28T06:24:14.441Z,37.00
2022-11-28T06:29:16.769Z,43.37
2022-11-28T06:34:19.126Z,39.03
2022-11-28T06:39:21.442Z,36.53
2022-11-28T06:44:24.110Z,41.33
2022-11-28T06:49:26.463Z,38.57
2022-11-28T06:54:29.151Z,38.33
2022-11-28T06:59:31.465Z,35.03
2022-11-28T07:04:33.912Z,35.77
2022-11-28T07:09:36.222Z,37.10
2022-11-28T07:14:38.524Z,37.57
2022-11-28T07:19:41.092Z,40.47
2022-11-28T07:24:43.642Z,38.00
2022-11-28T07:29:46.052Z,37.40
2022-11-28T07:34:50.373Z,36.53
2022-11-28T07:39:52.725Z,42.93
2022-11-28T07:44:55.030Z,75.37
2022-11-28T07:49:57.345Z,48.00
2022-11-28T07:54:59.773Z,51.83
2022-11-28T08:00:02.292Z,51.00
2022-11-28T08:05:14.740Z,37.13
2022-11-28T08:10:18.050Z,41.93
2022-11-28T08:15:20.451Z,42.93
2022-11-28T08:20:22.769Z,51.63
2022-11-28T08:25:25.070Z,51.97
2022-11-28T08:30:27.736Z,48.47
2022-11-28T08:35:30.423Z,51.57
2022-11-28T08:40:32.731Z,48.67
2022-11-28T08:45:37.439Z,43.83
2022-11-28T08:50:48.242Z,41.03
2022-11-28T08:55:50.649Z,36.13
2022-11-28T09:00:53.163Z,38.20
2022-11-28T09:06:02.638Z,46.77
2022-11-28T09:11:08.257Z,36.33
2022-11-28T09:16:10.775Z,41.63
2022-11-28T09:21:15.433Z,38.70
2022-11-28T09:26:20.572Z,34.67
2022-11-28T09:31:23.204Z,35.70
2022-11-28T09:36:25.571Z,32.23
2022-11-28T09:41:52.308Z,34.10
2022-11-28T09:46:58.233Z,35.33
2022-11-28T09:52:32.865Z,35.07
2022-11-28T09:57:40.275Z,35.37
2022-11-28T10:03:44.452Z,33.43
2022-11-28T10:09:37.913Z,33.07
2022-11-28T10:15:00.803Z,33.00
2022-11-28T10:20:14.766Z,41.03
2022-11-28T10:25:22.899Z,34.23
2022-11-28T10:30:34.230Z,36.70
2022-11-28T10:35:46.249Z,35.50
2022-11-28T10:41:15.939Z,34.67
2022-11-28T10:46:41.650Z,32.27
2022-11-28T10:52:11.303Z,32.27
2022-11-28T10:57:30.993Z,33.17
2022-11-28T11:02:42.441Z,36.83
2022-11-28T11:07:53.447Z,33.93
2022-11-28T11:12:57.580Z,40.50
2022-11-28T11:18:27.464Z,32.47
2022-11-28T11:23:32.772Z,31.37
2022-11-28T11:28:47.830Z,31.37
2022-11-28T11:34:15.676Z,29.33
2022-11-28T11:39:25.633Z,29.33
2022-11-28T11:44:34.593Z,29.03
2022-11-28T11:49:46.346Z,29.67
2022-11-28T11:54:58.226Z,30.03
2022-11-28T12:00:10.687Z,30.00
2022-11-28T12:05:27.724Z,30.50
2022-11-28T12:10:45.354Z,26.97
2022-11-28T12:16:02.424Z,28.73
2022-11-28T12:21:21.896Z,28.07
2022-11-28T12:26:31.861Z,25.90
2022-11-28T12:31:55.807Z,25.60
2022-11-28T12:37:07.136Z,28.07
2022-11-28T12:42:24.196Z,29.67
2022-11-28T12:48:14.845Z,29.47
2022-11-28T12:53:32.040Z,29.93
2022-11-28T12:58:40.933Z,28.23
2022-11-28T13:04:02.013Z,26.53
2022-11-28T13:09:29.123Z,29.70
2022-11-28T13:14:57.463Z,31.70
2022-11-28T13:20:16.401Z,29.33
2022-11-28T13:25:48.076Z,28.97
2022-11-28T13:30:59.258Z,27.60
2022-11-28T13:36:02.960Z,27.27
2022-11-28T13:41:05.454Z,29.03
2022-11-28T13:46:09.186Z,29.07
2022-11-28T13:51:19.141Z,30.77
2022-11-28T13:56:28.866Z,28.53
2022-11-28T14:01:49.239Z,33.60
2022-11-28T14:06:58.877Z,37.00
2022-11-28T14:12:33.131Z,33.43
2022-11-28T14:18:39.315Z,36.07
2022-11-28T14:23:59.394Z,43.63
2022-11-28T14:29:04.981Z,30.60
2022-11-28T14:34:31.266Z,30.47
2022-11-28T14:39:35.026Z,32.43
2022-11-28T14:44:55.607Z,36.47
2022-11-28T14:50:04.944Z,35.77
2022-11-28T14:55:10.712Z,33.53
2022-11-28T15:00:38.864Z,34.83
2022-11-28T15:05:49.850Z,32.30
2022-11-28T15:11:07.999Z,30.03
2022-11-28T15:16:17.082Z,29.97
2022-11-28T15:21:21.034Z,33.60
2022-11-28T15:26:29.003Z,29.73
2022-11-28T15:31:31.461Z,29.17
2022-11-28T15:36:34.034Z,30.77
2022-11-28T15:41:36.605Z,26.87
2022-11-28T15:46:39.019Z,38.17
2022-11-28T15:51:51.466Z,33.23
2022-11-28T15:56:57.906Z,37.30
2022-11-28T16:02:14.012Z,41.17
2022-11-28T16:07:16.546Z,35.60
2022-11-28T16:12:19.200Z,37.27
2022-11-28T16:17:29.357Z,37.30
2022-11-28T16:22:38.045Z,42.77
2022-11-28T16:27:44.369Z,48.43
2022-11-28T16:32:46.679Z,38.70
2022-11-28T16:37:49.002Z,44.67
2022-11-28T16:42:56.182Z,36.30
2022-11-28T16:48:17.263Z,45.40
2022-11-28T16:54:07.484Z,45.10
2022-11-28T16:59:19.151Z,38.70
2022-11-28T17:04:22.752Z,47.23
2022-11-28T17:09:25.138Z,48.40
2022-11-28T17:14:27.432Z,54.43
2022-11-28T17:19:29.845Z,49.10
2022-11-28T17:24:34.952Z,58.13
2022-11-28T17:29:37.225Z,56.53
2022-11-28T17:34:42.061Z,46.73
2022-11-28T17:40:04.630Z,48.50
2022-11-28T17:45:14.886Z,39.80
2022-11-28T17:50:18.885Z,38.47
2022-11-28T17:55:21.362Z,39.37
2022-11-28T18:00:23.987Z,39.10
2022-11-28T18:05:26.532Z,39.57
2022-11-28T18:10:28.830Z,45.00
2022-11-28T18:15:32.675Z,37.37
2022-11-28T18:20:37.472Z,41.80
2022-11-28T18:25:44.308Z,42.00
2022-11-28T18:30:47.066Z,43.03
2022-11-28T18:35:49.673Z,48.60
2022-11-28T18:40:51.955Z,55.37
2022-11-28T18:45:54.429Z,42.33
2022-11-28T18:50:56.951Z,43.97
2022-11-28T18:56:03.271Z,42.77
2022-11-28T19:01:16.627Z,41.30
2022-11-28T19:06:20.216Z,35.77
2022-11-28T19:11:23.397Z,32.20
2022-11-28T19:16:32.436Z,53.20
2022-11-28T19:21:35.922Z,62.47
2022-11-28T19:26:38.409Z,43.00
2022-11-28T19:31:41.741Z,34.73
2022-11-28T19:36:46.540Z,36.87
2022-11-28T19:41:50.466Z,48.83
2022-11-28T19:46:54.126Z,36.90
2022-11-28T19:51:56.837Z,37.60
2022-11-28T19:56:59.196Z,31.10
2022-11-28T20:02:04.451Z,40.10
2022-11-28T20:07:07.260Z,41.40
2022-11-28T20:12:09.629Z,36.13
2022-11-28T20:17:12.517Z,30.87
2022-11-28T20:22:14.865Z,33.47
2022-11-28T20:27:17.162Z,52.23
2022-11-28T20:32:19.428Z,38.13
2022-11-28T20:37:25.624Z,30.47
2022-11-28T20:42:27.944Z,28.70
2022-11-28T20:47:30.417Z,30.43
2022-11-28T20:52:32.769Z,33.00
2022-11-28T20:57:35.032Z,33.30
2022-11-28T21:02:37.481Z,30.30
2022-11-28T21:07:39.814Z,31.27
2022-11-28T21:12:42.127Z,34.50
2022-11-28T21:17:44.715Z,31.53
2022-11-28T21:22:47.090Z,29.13
2022-11-28T21:27:49.480Z,28.30
2022-11-28T21:32:51.841Z,30.90
2022-11-28T21:37:54.181Z,34.53
2022-11-28T21:42:57.652Z,32.93
2022-11-28T21:48:00.176Z,41.37
2022-11-28T21:53:02.719Z,30.97
2022-11-28T21:58:05.062Z,34.03
2022-11-28T22:03:13.966Z,32.37
2022-11-28T22:08:17.049Z,33.53
2022-11-28T22:13:19.933Z,33.00
2022-11-28T22:18:22.637Z,29.47
2022-11-28T22:23:24.905Z,30.17
2022-11-28T22:28:27.552Z,34.10
2022-11-28T22:33:29.903Z,29.53
2022-11-28T22:38:33.130Z,28.60
2022-11-28T22:43:36.410Z,31.63
2022-11-28T22:48:39.276Z,31.80
2022-11-28T22:53:41.999Z,30.63
2022-11-28T22:58:45.709Z,28.47
2022-11-28T23:03:49.088Z,44.40
2022-11-28T23:08:52.525Z,30.27
2022-11-28T23:13:55.137Z,30.20
2022-11-28T23:19:00.137Z,29.73
2022-11-28T23:24:02.570Z,28.63
2022-11-28T23:29:06.004Z,27.60
2022-11-28T23:34:10.449Z,27.57
2022-11-28T23:39:22.272Z,25.47
2022-11-28T23:44:24.589Z,25.07
2022-11-28T23:49:26.854Z,27.57
2022-11-28T23:54:29.151Z,27.70
2022-11-28T23:59:31.700Z,25.30
